Time;durP1;ratioP1;P1;durP2;ratioP2;P2;SDS_P1;SDS_P2;PMS_P1;PMS_P2;Temp;Humidity;BMP_temperature;BMP_pressure;BME280_temperature;BME280_humidity;BME280_pressure;Samples;Min_cycle;Max_cycle;Signal;HPM_P1;HPM_P2
2023/07/31 00:00:13;;;;;;;9.47;2.17;;;16.60;99.30;;;;;;5038814;28;20037;-73
2023/07/31 00:02:39;;;;;;;7.80;2.07;;;16.60;99.30;;;;;;5020641;28;20051;-73
2023/07/31 00:05:05;;;;;;;11.37;2.03;;;16.50;99.60;;;;;;5036780;28;20083;-73
2023/07/31 00:07:32;;;;;;;7.93;1.87;;;16.50;99.90;;;;;;5035345;28;20355;-73
2023/07/31 00:09:57;;;;;;;7.77;2.53;;;16.50;99.90;;;;;;5040862;28;20080;-73
2023/07/31 00:12:23;;;;;;;9.43;1.87;;;16.50;99.90;;;;;;5039303;28;20430;-73
2023/07/31 00:14:49;;;;;;;6.93;2.13;;;16.50;99.90;;;;;;5060408;28;20088;-73
2023/07/31 00:17:16;;;;;;;5.23;2.20;;;16.40;99.90;;;;;;5018412;28;20037;-73
2023/07/31 00:19:42;;;;;;;7.33;2.33;;;16.40;99.90;;;;;;5040515;28;20511;-73
2023/07/31 00:22:08;;;;;;;5.57;2.77;;;16.40;99.90;;;;;;5041332;28;20370;-73
2023/07/31 00:24:33;;;;;;;8.53;2.70;;;16.40;99.90;;;;;;5040812;28;20034;-73
2023/07/31 00:26:59;;;;;;;8.17;2.27;;;16.40;99.90;;;;;;5041560;28;20044;-73
2023/07/31 00:29:25;;;;;;;13.17;2.60;;;16.40;99.90;;;;;;5038065;28;20060;-73
2023/07/31 00:31:50;;;;;;;5.73;2.30;;;16.30;99.90;;;;;;5036915;28;20128;-73
2023/07/31 00:34:16;;;;;;;5.63;2.70;;;16.30;99.90;;;;;;5041810;28;20044;-73
2023/07/31 00:36:42;;;;;;;7.67;2.80;;;16.30;99.90;;;;;;5033776;28;20447;-73
2023/07/31 00:39:07;;;;;;;6.83;2.80;;;16.30;99.90;;;;;;5038430;28;20038;-73
2023/07/31 00:41:33;;;;;;;8.67;2.67;;;16.30;99.90;;;;;;5047582;28;20029;-73
2023/07/31 00:43:59;;;;;;;8.30;2.30;;;16.30;99.90;;;;;;5044785;28;20477;-73
2023/07/31 00:46:24;;;;;;;7.07;2.53;;;16.30;99.90;;;;;;5042700;28;20044;-73
2023/07/31 00:48:50;;;;;;;7.93;2.17;;;16.30;99.90;;;;;;5042599;28;20048;-73
2023/07/31 00:51:16;;;;;;;10.67;2.30;;;16.30;99.90;;;;;;5023966;28;20048;-73
2023/07/31 00:53:43;;;;;;;7.47;2.50;;;16.30;99.90;;;;;;5030633;28;20106;-73
2023/07/31 00:56:09;;;;;;;5.83;2.40;;;16.30;99.90;;;;;;5043305;28;20132;-74
2023/07/31 00:58:35;;;;;;;6.67;2.00;;;16.30;99.90;;;;;;5020604;28;20641;-73
2023/07/31 01:01:01;;;;;;;7.03;2.03;;;16.30;99.90;;;;;;5035095;28;20284;-73
2023/07/31 01:03:27;;;;;;;6.93;1.73;;;16.30;99.90;;;;;;5024343;28;20091;-73
2023/07/31 01:06:04;;;;;;;8.17;2.27;;;16.30;99.90;;;;;;5041606;28;20057;-73
2023/07/31 01:08:47;;;;;;;7.10;2.00;;;16.30;99.90;;;;;;5030032;28;20129;-73
2023/07/31 01:11:21;;;;;;;8.50;2.30;;;16.30;99.90;;;;;;5045732;28;20298;-73
2023/07/31 01:13:48;;;;;;;5.90;1.92;;;16.20;99.90;;;;;;5045323;28;20378;-73
2023/07/31 01:16:14;;;;;;;5.67;1.60;;;16.20;99.90;;;;;;5033453;28;20488;-73
2023/07/31 01:18:39;;;;;;;9.27;1.70;;;16.20;99.90;;;;;;5040461;28;20659;-73
2023/07/31 01:21:40;;;;;;;5.67;1.40;;;16.20;99.90;;;;;;5034091;28;20506;-73
2023/07/31 01:24:43;;;;;;;6.57;1.33;;;16.10;99.90;;;;;;5038639;28;20049;-73
2023/07/31 01:27:15;;;;;;;7.43;1.60;;;16.10;99.90;;;;;;5040539;28;20340;-73
2023/07/31 01:29:59;;;;;;;8.47;1.90;;;16.10;99.90;;;;;;5040453;28;20293;-73
2023/07/31 01:32:28;;;;;;;5.63;1.87;;;16.10;99.90;;;;;;5032884;28;20280;-73
2023/07/31 01:34:54;;;;;;;7.70;1.50;;;16.00;99.90;;;;;;5041673;28;20398;-73
2023/07/31 01:37:20;;;;;;;6.43;1.93;;;16.00;99.90;;;;;;5042445;28;20304;-73
2023/07/31 01:39:46;;;;;;;5.90;1.83;;;16.00;99.90;;;;;;5034525;28;20350;-73
2023/07/31 01:42:11;;;;;;;6.77;1.50;;;15.90;99.90;;;;;;5035441;28;20552;-73
2023/07/31 01:44:37;;;;;;;6.30;1.57;;;15.90;99.90;;;;;;5031606;28;20047;-72
2023/07/31 01:47:03;;;;;;;5.73;1.80;;;15.90;99.90;;;;;;5024838;28;20049;-73
2023/07/31 01:49:29;;;;;;;8.27;1.97;;;15.90;99.90;;;;;;5038085;28;20064;-73
2023/07/31 01:51:54;;;;;;;7.30;1.80;;;15.90;99.90;;;;;;5040862;28;20079;-73
2023/07/31 01:54:20;;;;;;;4.83;1.80;;;15.90;99.90;;;;;;5040378;28;20056;-73
2023/07/31 01:56:46;;;;;;;6.73;1.70;;;15.90;99.90;;;;;;5045476;28;20074;-73
2023/07/31 01:59:11;;;;;;;6.33;1.53;;;15.90;99.90;;;;;;5043179;28;20044;-73
2023/07/31 02:01:37;;;;;;;10.43;1.80;;;15.90;99.90;;;;;;5027730;28;20516;-73
2023/07/31 02:04:04;;;;;;;6.93;1.63;;;15.90;99.90;;;;;;5043434;28;20111;-73
2023/07/31 02:06:30;;;;;;;5.27;1.33;;;16.00;99.90;;;;;;5039500;28;20403;-73
2023/07/31 02:08:56;;;;;;;8.07;1.43;;;15.90;99.90;;;;;;5041512;28;20291;-73
2023/07/31 02:11:21;;;;;;;7.40;1.60;;;16.00;99.90;;;;;;5029670;28;20041;-73
2023/07/31 02:13:47;;;;;;;8.33;1.23;;;15.90;99.90;;;;;;5006749;28;20057;-73
2023/07/31 02:16:13;;;;;;;6.00;1.33;;;15.90;99.90;;;;;;5002513;28;20068;-73
2023/07/31 02:18:39;;;;;;;7.33;1.50;;;15.90;99.90;;;;;;5010837;28;20489;-73
2023/07/31 02:21:04;;;;;;;7.13;1.60;;;15.90;99.90;;;;;;5007247;28;20042;-73
2023/07/31 02:23:30;;;;;;;3.83;1.20;;;15.90;99.90;;;;;;4992303;28;20077;-73
2023/07/31 02:25:56;;;;;;;4.97;1.37;;;15.90;99.90;;;;;;5013729;28;20378;-73
2023/07/31 02:28:21;;;;;;;6.00;1.63;;;15.90;99.90;;;;;;5006045;28;20124;-73
2023/07/31 02:30:47;;;;;;;3.77;1.37;;;15.90;99.90;;;;;;4988289;28;20077;-73
2023/07/31 02:33:13;;;;;;;4.03;1.40;;;15.90;99.90;;;;;;5007444;28;20469;-73
2023/07/31 02:35:39;;;;;;;3.53;1.37;;;15.90;99.90;;;;;;5002640;28;20390;-73
2023/07/31 02:38:05;;;;;;;7.20;1.67;;;15.90;99.90;;;;;;5011126;28;20300;-73
2023/07/31 02:40:31;;;;;;;4.40;1.60;;;15.90;99.90;;;;;;5004307;28;20045;-73
2023/07/31 02:42:56;;;;;;;6.13;1.53;;;15.90;99.90;;;;;;5000640;28;20037;-73
2023/07/31 02:45:22;;;;;;;4.83;1.00;;;15.90;99.90;;;;;;5009157;28;20045;-73
2023/07/31 02:47:47;;;;;;;3.63;1.00;;;15.80;99.90;;;;;;5008201;28;20501;-73
2023/07/31 02:50:13;;;;;;;3.27;0.90;;;15.80;99.90;;;;;;5014149;28;20468;-73
2023/07/31 02:52:39;;;;;;;3.17;0.73;;;15.70;99.90;;;;;;5011353;28;20110;-73
2023/07/31 02:55:05;;;;;;;2.37;0.70;;;15.70;99.90;;;;;;5012909;28;20052;-73
2023/07/31 02:57:31;;;;;;;2.70;0.77;;;15.60;99.90;;;;;;5008095;28;20057;-73
2023/07/31 02:59:56;;;;;;;4.30;0.90;;;15.50;99.90;;;;;;5008366;28;20284;-73
2023/07/31 03:02:22;;;;;;;4.43;0.70;;;15.50;99.90;;;;;;5013807;28;20133;-73
2023/07/31 03:04:48;;;;;;;3.37;0.83;;;15.50;99.90;;;;;;5012981;28;20595;-73
2023/07/31 03:07:13;;;;;;;2.10;0.60;;;15.40;99.90;;;;;;5012661;28;20123;-73
2023/07/31 03:09:39;;;;;;;3.53;1.00;;;15.40;99.90;;;;;;5014714;28;20046;-73
2023/07/31 03:12:05;;;;;;;3.73;0.80;;;15.50;99.90;;;;;;5006194;28;20056;-73
2023/07/31 03:14:31;;;;;;;3.23;0.80;;;15.40;99.90;;;;;;5005573;28;20749;-73
2023/07/31 03:16:57;;;;;;;2.00;0.90;;;15.40;99.90;;;;;;5014089;28;20304;-74
2023/07/31 03:19:22;;;;;;;1.77;0.80;;;15.50;99.90;;;;;;5021239;28;20464;-74
2023/07/31 03:21:48;;;;;;;3.37;1.00;;;15.50;99.90;;;;;;5015665;28;20033;-74
2023/07/31 03:24:14;;;;;;;4.67;0.90;;;15.50;99.90;;;;;;5025186;28;20048;-73
2023/07/31 03:26:41;;;;;;;3.33;0.57;;;15.50;99.90;;;;;;5021485;28;20064;-73
2023/07/31 03:29:07;;;;;;;1.93;0.50;;;15.50;99.90;;;;;;5025582;28;20500;-74
2023/07/31 03:31:33;;;;;;;4.17;0.80;;;15.60;99.90;;;;;;5026654;28;20286;-74
2023/07/31 03:33:59;;;;;;;3.17;0.90;;;15.60;99.90;;;;;;5022646;28;20735;-74
2023/07/31 03:36:24;;;;;;;2.70;1.10;;;15.60;99.90;;;;;;5028982;28;20060;-74
2023/07/31 03:38:52;;;;;;;4.83;1.10;;;15.60;99.90;;;;;;5029281;28;20040;-74
2023/07/31 03:41:17;;;;;;;3.30;1.23;;;15.60;99.90;;;;;;5010554;28;20049;-74
2023/07/31 03:43:43;;;;;;;5.33;1.57;;;15.60;99.90;;;;;;5026786;28;20348;-74
2023/07/31 03:46:09;;;;;;;4.43;1.47;;;15.70;99.90;;;;;;5017825;28;20393;-74
2023/07/31 03:48:34;;;;;;;5.10;1.30;;;15.70;99.90;;;;;;5022650;28;20037;-74
2023/07/31 03:51:00;;;;;;;3.33;1.30;;;15.70;99.90;;;;;;5030128;28;20493;-74
2023/07/31 03:53:26;;;;;;;5.50;1.27;;;15.70;99.90;;;;;;5017135;28;20041;-74
2023/07/31 03:55:51;;;;;;;7.63;1.80;;;15.70;99.90;;;;;;5021488;28;20037;-74
2023/07/31 03:58:17;;;;;;;5.37;1.73;;;15.70;99.90;;;;;;5009767;28;20076;-74
2023/07/31 04:00:43;;;;;;;5.13;1.50;;;15.70;99.90;;;;;;5022272;28;20046;-74
2023/07/31 04:03:08;;;;;;;5.90;1.40;;;15.70;99.90;;;;;;5024009;28;20123;-74
2023/07/31 04:05:39;;;;;;;5.17;1.73;;;15.70;99.90;;;;;;5029952;28;20559;-74
2023/07/31 04:08:05;;;;;;;5.83;1.87;;;15.80;99.90;;;;;;5022138;28;20093;-74
2023/07/31 04:10:33;;;;;;;7.20;1.50;;;15.80;99.90;;;;;;5032095;28;20275;-73
2023/07/31 04:12:59;;;;;;;4.80;1.67;;;15.80;99.90;;;;;;5033622;28;20104;-74
2023/07/31 04:15:25;;;;;;;7.27;1.70;;;15.70;99.90;;;;;;5038006;28;20287;-74
2023/07/31 04:17:50;;;;;;;9.77;1.80;;;15.80;99.90;;;;;;5048205;28;20303;-74
2023/07/31 04:20:16;;;;;;;8.20;2.27;;;15.80;99.90;;;;;;5037268;28;20089;-75
2023/07/31 04:22:42;;;;;;;8.40;2.50;;;15.80;99.90;;;;;;5045688;28;20649;-74
2023/07/31 04:25:07;;;;;;;9.90;2.40;;;15.80;99.90;;;;;;5023863;28;20045;-74
2023/07/31 04:27:33;;;;;;;11.13;3.00;;;15.80;99.90;;;;;;5047953;28;20060;-75
2023/07/31 04:29:59;;;;;;;9.10;3.30;;;15.90;99.90;;;;;;5039237;28;20037;-75
2023/07/31 04:32:25;;;;;;;10.23;2.97;;;15.90;99.90;;;;;;5021053;28;20045;-76
2023/07/31 04:34:50;;;;;;;11.90;2.77;;;15.90;99.90;;;;;;5043805;28;20045;-75
2023/07/31 04:37:16;;;;;;;12.07;2.97;;;15.90;99.90;;;;;;5020788;28;20112;-75
2023/07/31 04:39:42;;;;;;;5.73;2.17;;;15.80;99.90;;;;;;5042225;28;20115;-75
2023/07/31 04:42:07;;;;;;;9.83;2.17;;;15.80;99.90;;;;;;5024095;28;20030;-74
2023/07/31 04:44:33;;;;;;;7.90;2.30;;;15.80;99.90;;;;;;5037401;28;20040;-74
2023/07/31 04:46:59;;;;;;;6.50;2.30;;;15.80;99.90;;;;;;5038608;28;20106;-75
2023/07/31 04:49:24;;;;;;;9.47;2.77;;;15.70;99.90;;;;;;5037317;28;20132;-76
2023/07/31 04:51:50;;;;;;;6.30;2.40;;;15.70;99.90;;;;;;5036440;28;20041;-75
2023/07/31 04:54:16;;;;;;;7.40;2.33;;;15.80;99.90;;;;;;5037927;28;20041;-75
2023/07/31 04:56:42;;;;;;;8.20;2.80;;;15.70;99.90;;;;;;5042599;28;20127;-75
2023/07/31 04:59:08;;;;;;;8.17;2.63;;;15.70;99.90;;;;;;5040367;28;20378;-75
2023/07/31 05:01:33;;;;;;;7.23;2.80;;;15.70;99.90;;;;;;5038421;28;20049;-75
2023/07/31 05:03:59;;;;;;;12.80;3.80;;;15.70;99.90;;;;;;5030952;28;20542;-75
2023/07/31 05:06:25;;;;;;;14.13;3.97;;;15.70;99.90;;;;;;5041745;28;20036;-76
2023/07/31 05:08:50;;;;;;;16.13;4.27;;;15.70;99.90;;;;;;5027601;28;20047;-75
2023/07/31 05:11:16;;;;;;;19.17;4.77;;;15.80;99.90;;;;;;5026500;28;20037;-76
2023/07/31 05:13:42;;;;;;;23.80;6.27;;;15.80;99.90;;;;;;5016674;28;20157;-76
2023/07/31 05:16:07;;;;;;;30.47;7.97;;;15.80;99.90;;;;;;5046431;28;20406;-77
2023/07/31 05:18:33;;;;;;;30.67;8.20;;;15.90;99.90;;;;;;5038981;28;20045;-76
2023/07/31 05:20:59;;;;;;;28.83;8.60;;;15.90;99.90;;;;;;5039406;28;20055;-76
2023/07/31 05:23:24;;;;;;;27.27;8.17;;;16.00;99.90;;;;;;5040851;28;20040;-75
2023/07/31 05:25:50;;;;;;;30.63;7.63;;;16.00;99.90;;;;;;5041271;28;20037;-76
2023/07/31 05:28:16;;;;;;;32.97;8.03;;;16.10;99.90;;;;;;5047737;28;20055;-76
2023/07/31 05:30:42;;;;;;;20.03;6.93;;;16.10;99.90;;;;;;5038302;28;20037;-76
2023/07/31 05:33:07;;;;;;;19.00;6.93;;;16.10;99.90;;;;;;5039716;28;20094;-75
2023/07/31 05:35:33;;;;;;;23.97;6.40;;;16.10;99.90;;;;;;5032262;28;20283;-76
2023/07/31 05:37:59;;;;;;;30.40;7.77;;;16.10;99.90;;;;;;5044741;28;20043;-76
2023/07/31 05:40:24;;;;;;;33.83;8.10;;;16.10;99.90;;;;;;5040549;28;20080;-76
2023/07/31 05:42:50;;;;;;;22.00;6.47;;;16.20;99.90;;;;;;5040463;28;20045;-76
2023/07/31 05:45:16;;;;;;;25.13;6.50;;;16.20;99.90;;;;;;5032294;28;20064;-76
2023/07/31 05:47:41;;;;;;;26.10;8.23;;;16.20;99.90;;;;;;5034707;28;20045;-76
2023/07/31 05:50:07;;;;;;;36.33;8.13;;;16.30;99.90;;;;;;5038568;28;20173;-76
2023/07/31 05:52:33;;;;;;;29.33;7.77;;;16.30;99.90;;;;;;5038126;28;20626;-76
2023/07/31 05:54:59;;;;;;;31.63;7.70;;;16.30;99.90;;;;;;5038405;28;20348;-76
2023/07/31 05:57:24;;;;;;;29.23;7.50;;;16.40;99.90;;;;;;5035484;28;20046;-76
2023/07/31 05:59:50;;;;;;;22.73;6.47;;;16.40;99.90;;;;;;5024450;28;20036;-76
2023/07/31 06:02:16;;;;;;;25.77;6.70;;;16.50;99.90;;;;;;5033280;28;20037;-76
2023/07/31 06:04:42;;;;;;;25.03;6.70;;;16.50;99.90;;;;;;5044113;28;20043;-76
2023/07/31 06:07:07;;;;;;;26.90;7.23;;;16.50;99.90;;;;;;5046677;28;20409;-76
2023/07/31 06:09:33;;;;;;;25.17;6.43;;;16.60;99.90;;;;;;5044823;28;20036;-76
2023/07/31 06:11:59;;;;;;;21.73;6.27;;;16.60;99.90;;;;;;5041489;28;20076;-76
2023/07/31 06:14:24;;;;;;;17.07;6.37;;;16.60;99.90;;;;;;5037296;28;20051;-76
2023/07/31 06:16:50;;;;;;;23.50;5.67;;;16.60;99.90;;;;;;5025101;28;20041;-76
2023/07/31 06:19:16;;;;;;;21.20;5.97;;;16.70;99.90;;;;;;5043550;28;20387;-76
2023/07/31 06:21:44;;;;;;;16.37;6.33;;;16.70;99.90;;;;;;5034645;28;20102;-76
2023/07/31 06:24:12;;;;;;;15.63;4.90;;;16.70;99.90;;;;;;5045159;28;20049;-76
2023/07/31 06:26:37;;;;;;;17.10;4.63;;;16.70;99.90;;;;;;5026671;28;20288;-76
2023/07/31 06:29:03;;;;;;;16.07;4.67;;;16.70;99.90;;;;;;5027401;28;20318;-75
2023/07/31 06:31:29;;;;;;;17.17;4.30;;;16.70;99.90;;;;;;5038807;28;20041;-76
2023/07/31 06:33:54;;;;;;;17.17;5.00;;;16.70;99.90;;;;;;5041929;28;20103;-76
2023/07/31 06:36:20;;;;;;;13.60;4.43;;;16.70;99.90;;;;;;5045978;28;20055;-76
2023/07/31 06:38:46;;;;;;;19.43;4.93;;;16.70;99.90;;;;;;5049423;28;20048;-76
2023/07/31 06:41:11;;;;;;;16.20;5.20;;;16.60;99.90;;;;;;5043185;28;20948;-76
2023/07/31 06:43:37;;;;;;;15.40;4.07;;;16.60;99.90;;;;;;5035356;28;20420;-76
2023/07/31 06:46:07;;;;;;;9.47;3.30;;;16.70;99.90;;;;;;5038305;28;20163;-76
2023/07/31 06:48:33;;;;;;;11.27;3.27;;;16.70;99.90;;;;;;5040988;28;20132;-76
2023/07/31 06:51:00;;;;;;;9.27;2.83;;;16.70;99.90;;;;;;5037903;28;20364;-76
2023/07/31 06:53:26;;;;;;;12.10;3.60;;;16.80;99.90;;;;;;5045221;28;20323;-75
2023/07/31 06:55:51;;;;;;;10.57;3.00;;;16.90;99.90;;;;;;5025337;28;20326;-76
2023/07/31 06:58:17;;;;;;;11.47;3.10;;;16.90;99.90;;;;;;5042018;28;20044;-76
2023/07/31 07:00:43;;;;;;;6.40;2.33;;;16.90;99.90;;;;;;5049268;28;20401;-75
2023/07/31 07:03:09;;;;;;;11.83;2.67;;;16.90;99.90;;;;;;5041503;28;20056;-76
2023/07/31 07:05:35;;;;;;;7.60;2.40;;;17.00;99.90;;;;;;5046033;28;20048;-76
2023/07/31 07:08:00;;;;;;;9.53;2.20;;;17.00;99.90;;;;;;5039678;28;20033;-76
2023/07/31 07:10:26;;;;;;;8.07;1.87;;;17.00;99.90;;;;;;5035015;28;20060;-76
2023/07/31 07:12:52;;;;;;;5.20;1.47;;;17.10;99.90;;;;;;5040012;28;20490;-76
2023/07/31 07:15:18;;;;;;;5.77;1.47;;;17.20;99.90;;;;;;5041352;28;20182;-75
2023/07/31 07:17:44;;;;;;;5.10;2.00;;;17.20;99.90;;;;;;5037796;28;20753;-75
2023/07/31 07:20:09;;;;;;;4.47;1.73;;;17.20;99.90;;;;;;5038830;28;20041;-76
2023/07/31 07:22:35;;;;;;;6.57;2.33;;;17.30;99.90;;;;;;5039984;28;20152;-77
2023/07/31 07:25:01;;;;;;;5.30;1.80;;;17.30;99.90;;;;;;5036497;28;20544;-77
2023/07/31 07:27:27;;;;;;;4.07;1.47;;;17.30;99.90;;;;;;5052672;28;20068;-77
2023/07/31 07:29:53;;;;;;;4.07;1.37;;;17.20;99.90;;;;;;5048487;28;20295;-77
2023/07/31 07:32:19;;;;;;;3.97;1.13;;;17.30;99.90;;;;;;5045227;28;20072;-77
2023/07/31 07:34:44;;;;;;;2.63;1.10;;;17.20;99.90;;;;;;5053049;28;20037;-78
2023/07/31 07:37:11;;;;;;;1.77;0.53;;;17.20;99.90;;;;;;5055420;28;20037;-78
2023/07/31 07:39:37;;;;;;;1.80;0.40;;;17.20;99.90;;;;;;5056986;28;20070;-77
2023/07/31 07:42:03;;;;;;;1.07;0.40;;;17.20;99.90;;;;;;5047545;28;20407;-78
2023/07/31 07:44:29;;;;;;;2.60;0.20;;;17.20;99.90;;;;;;5049650;28;20095;-77
2023/07/31 07:46:58;;;;;;;1.07;0.33;;;17.30;99.90;;;;;;5059669;28;20285;-78
2023/07/31 07:49:25;;;;;;;1.63;0.43;;;17.30;99.90;;;;;;5035066;28;20308;-77
2023/07/31 07:51:50;;;;;;;1.63;0.30;;;17.40;99.90;;;;;;5017476;28;20041;-78
2023/07/31 07:54:16;;;;;;;2.10;0.50;;;17.40;99.90;;;;;;5046461;28;20378;-77
2023/07/31 07:56:42;;;;;;;0.97;0.20;;;17.50;99.90;;;;;;5051680;28;20436;-77
2023/07/31 07:59:09;;;;;;;1.83;0.30;;;17.60;99.90;;;;;;5040586;28;20299;-78
2023/07/31 08:01:35;;;;;;;1.90;0.30;;;17.60;99.90;;;;;;5032683;28;20033;-77
2023/07/31 08:04:02;;;;;;;0.50;0.23;;;17.70;99.90;;;;;;5052701;28;20291;-76
2023/07/31 08:06:29;;;;;;;0.60;0.20;;;17.80;99.90;;;;;;5036033;28;20393;-76
2023/07/31 08:08:55;;;;;;;1.63;0.20;;;17.80;99.90;;;;;;5030240;28;20296;-77
2023/07/31 08:11:25;;;;;;;0.67;0.40;;;17.90;99.90;;;;;;5052054;28;20287;-77
2023/07/31 08:13:53;;;;;;;0.50;0.10;;;17.80;99.90;;;;;;5049387;28;20321;-78
2023/07/31 08:16:19;;;;;;;0.90;0.10;;;17.80;99.90;;;;;;5046776;28;20775;-77
2023/07/31 08:18:45;;;;;;;0.37;0.10;;;17.80;99.90;;;;;;5050379;28;20051;-77
2023/07/31 08:21:11;;;;;;;0.10;0.00;;;17.80;99.90;;;;;;5049066;28;20044;-77
2023/07/31 08:23:36;;;;;;;0.60;0.10;;;17.80;99.90;;;;;;5047069;28;20029;-77
2023/07/31 08:26:02;;;;;;;0.63;0.10;;;17.80;99.90;;;;;;5053148;28;20029;-77
2023/07/31 08:28:28;;;;;;;0.70;0.10;;;17.80;99.90;;;;;;5050862;28;20057;-77
2023/07/31 08:30:53;;;;;;;0.60;0.10;;;17.80;99.90;;;;;;5050558;28;20037;-78
2023/07/31 08:33:19;;;;;;;1.00;0.10;;;17.80;99.90;;;;;;5028416;28;20044;-79
2023/07/31 08:35:45;;;;;;;1.43;0.10;;;17.80;99.90;;;;;;5038330;28;20040;-79
2023/07/31 08:38:12;;;;;;;0.63;0.20;;;17.80;99.90;;;;;;5036632;28;20437;-79
2023/07/31 08:40:38;;;;;;;1.10;0.20;;;17.80;99.90;;;;;;5034336;28;20029;-79
2023/07/31 08:43:04;;;;;;;2.27;0.30;;;17.90;99.90;;;;;;5049239;28;20292;-78
2023/07/31 08:45:30;;;;;;;2.03;0.20;;;17.90;99.90;;;;;;5046965;28;20299;-78
2023/07/31 08:47:59;;;;;;;4.00;0.60;;;18.00;99.90;;;;;;5036314;28;20352;-78
2023/07/31 08:50:27;;;;;;;3.93;0.50;;;18.00;99.90;;;;;;5048558;28;20342;-78
2023/07/31 08:52:53;;;;;;;5.77;0.80;;;17.90;99.90;;;;;;5030618;28;20287;-77
2023/07/31 08:55:28;;;;;;;4.40;0.77;;;17.90;99.90;;;;;;5036551;28;20307;-78
2023/07/31 08:57:55;;;;;;;3.50;0.40;;;18.00;99.90;;;;;;5040475;28;20090;-76
2023/07/31 09:00:25;;;;;;;4.03;0.60;;;17.90;99.90;;;;;;5016287;28;20037;-78
2023/07/31 09:03:03;;;;;;;2.20;0.20;;;17.90;99.90;;;;;;5035190;28;20295;-76
2023/07/31 09:05:30;;;;;;;1.13;0.20;;;18.00;99.90;;;;;;5013574;28;20280;-76
2023/07/31 09:07:57;;;;;;;1.23;0.20;;;18.10;99.90;;;;;;5037787;28;20741;-77
2023/07/31 09:10:24;;;;;;;3.57;0.60;;;18.10;99.90;;;;;;5013789;28;20324;-78
2023/07/31 09:12:51;;;;;;;3.00;0.40;;;18.10;99.90;;;;;;5026570;28;20226;-78
2023/07/31 09:15:18;;;;;;;2.87;0.40;;;18.10;99.90;;;;;;5036645;28;20279;-76
2023/07/31 09:17:43;;;;;;;2.30;0.50;;;18.20;99.90;;;;;;5038350;28;20307;-76
2023/07/31 09:20:14;;;;;;;2.23;0.40;;;18.30;99.90;;;;;;5032563;28;20365;-76
2023/07/31 09:22:40;;;;;;;1.73;0.20;;;18.30;99.90;;;;;;5018781;28;20190;-76
2023/07/31 09:25:19;;;;;;;1.23;0.20;;;18.20;99.90;;;;;;5037063;28;20291;-76
2023/07/31 09:27:59;;;;;;;3.13;0.30;;;18.20;99.90;;;;;;5014645;28;20038;-77
2023/07/31 09:30:25;;;;;;;1.77;0.23;;;18.10;99.90;;;;;;5026101;28;20395;-77
2023/07/31 09:32:59;;;;;;;2.70;0.30;;;18.00;99.90;;;;;;5041687;28;20371;-76
2023/07/31 09:35:33;;;;;;;2.37;0.50;;;18.00;99.90;;;;;;5036721;28;20290;-77
2023/07/31 09:38:03;;;;;;;2.58;0.40;;;18.20;99.90;;;;;;5034130;28;20056;-77
2023/07/31 09:40:30;;;;;;;2.73;0.60;;;18.30;99.90;;;;;;5042562;28;20507;-77
2023/07/31 09:42:58;;;;;;;1.10;0.40;;;18.30;99.90;;;;;;5040282;28;20045;-76
2023/07/31 09:45:24;;;;;;;1.53;0.40;;;18.30;99.90;;;;;;5034657;28;20049;-77
2023/07/31 09:47:50;;;;;;;1.00;0.30;;;18.20;99.90;;;;;;5038421;28;20037;-76
2023/07/31 09:50:16;;;;;;;2.60;0.40;;;18.20;99.90;;;;;;5045733;28;20049;-77
2023/07/31 09:52:42;;;;;;;2.10;0.40;;;18.10;99.90;;;;;;5030207;28;20456;-76
2023/07/31 09:55:09;;;;;;;2.10;0.47;;;18.10;99.90;;;;;;5026437;28;20693;-76
2023/07/31 09:57:41;;;;;;;2.43;0.20;;;18.10;99.90;;;;;;5028865;28;20485;-76
2023/07/31 10:00:09;;;;;;;2.77;0.40;;;18.20;99.90;;;;;;5019989;28;20523;-76
2023/07/31 10:02:36;;;;;;;2.60;0.50;;;18.20;99.90;;;;;;5042700;28;20037;-76
2023/07/31 10:05:03;;;;;;;3.97;0.70;;;18.30;99.90;;;;;;5035341;28;20100;-76
2023/07/31 10:07:30;;;;;;;3.73;0.73;;;18.50;99.90;;;;;;5044124;28;20052;-76
2023/07/31 10:10:00;;;;;;;2.53;0.77;;;18.70;99.90;;;;;;5039030;28;20338;-76
2023/07/31 10:12:30;;;;;;;3.77;1.20;;;18.90;99.90;;;;;;5038422;28;20497;-76
2023/07/31 10:14:56;;;;;;;3.33;0.80;;;19.10;99.90;;;;;;5038976;28;20508;-76
2023/07/31 10:17:22;;;;;;;4.17;1.30;;;19.20;99.90;;;;;;5045247;28;20076;-76
2023/07/31 10:19:49;;;;;;;2.40;0.73;;;19.30;99.90;;;;;;5029601;28;20120;-76
2023/07/31 10:22:16;;;;;;;2.73;0.90;;;19.20;99.90;;;;;;5023406;28;20033;-76
2023/07/31 10:24:45;;;;;;;1.57;0.53;;;19.10;99.90;;;;;;5031055;28;20048;-76
2023/07/31 10:27:11;;;;;;;2.27;0.37;;;18.90;99.90;;;;;;5027766;28;20038;-77
2023/07/31 10:29:39;;;;;;;1.40;0.30;;;18.70;99.90;;;;;;5044321;28;20120;-77
2023/07/31 10:32:08;;;;;;;1.50;0.30;;;18.50;99.90;;;;;;5021862;28;20048;-77
2023/07/31 10:34:36;;;;;;;2.17;0.30;;;18.50;99.90;;;;;;5038637;28;20110;-77
2023/07/31 10:37:35;;;;;;;2.60;0.50;;;18.60;99.90;;;;;;5038540;28;20499;-77
2023/07/31 10:40:05;;;;;;;1.63;0.40;;;18.80;99.90;;;;;;5043449;28;20041;-76
2023/07/31 10:42:38;;;;;;;4.73;0.50;;;19.00;99.90;;;;;;5038765;28;20037;-76
2023/07/31 10:45:14;;;;;;;2.80;0.40;;;19.10;99.90;;;;;;5032711;28;20045;-76
2023/07/31 10:47:45;;;;;;;1.30;0.37;;;19.00;99.90;;;;;;5043400;28;20037;-76
2023/07/31 10:50:21;;;;;;;2.60;0.60;;;19.00;99.90;;;;;;5041629;28;20080;-76
2023/07/31 10:52:52;;;;;;;3.50;0.80;;;19.00;99.90;;;;;;5045305;28;20140;-76
2023/07/31 10:55:24;;;;;;;5.63;1.00;;;19.10;99.90;;;;;;5041203;28;20110;-76
2023/07/31 10:57:50;;;;;;;3.40;1.30;;;19.20;99.90;;;;;;5041327;28;20040;-76
2023/07/31 11:00:24;;;;;;;6.17;1.50;;;19.10;99.90;;;;;;5043184;28;20371;-76
2023/07/31 11:03:13;;;;;;;4.93;1.20;;;19.10;99.90;;;;;;5057518;28;20039;-78
2023/07/31 11:05:55;;;;;;;6.33;1.53;;;19.00;99.90;;;;;;5056752;28;20040;-80
2023/07/31 11:08:28;;;;;;;5.50;1.53;;;19.00;99.90;;;;;;5055829;28;20041;-77
2023/07/31 11:11:03;;;;;;;8.20;1.47;;;19.10;99.90;;;;;;5059114;28;20087;-80
2023/07/31 11:13:42;;;;;;;8.43;1.65;;;19.00;99.90;;;;;;5049194;28;20088;-80
2023/07/31 11:16:10;;;;;;;4.90;1.50;;;18.90;99.90;;;;;;5049166;28;20063;-79
2023/07/31 11:18:42;;;;;;;6.13;1.70;;;18.90;99.90;;;;;;5049583;28;20041;-79
2023/07/31 11:21:12;;;;;;;7.60;1.80;;;18.90;99.90;;;;;;5057862;28;20041;-80
2023/07/31 11:23:38;;;;;;;5.67;1.50;;;19.00;99.90;;;;;;5046653;28;20048;-79
2023/07/31 11:26:09;;;;;;;7.73;1.70;;;19.00;99.90;;;;;;5053005;28;20103;-78
2023/07/31 11:28:35;;;;;;;10.50;2.30;;;18.80;99.90;;;;;;5037987;28;20500;-80
2023/07/31 11:31:02;;;;;;;7.00;1.77;;;18.70;99.90;;;;;;5034459;28;20096;-79
2023/07/31 11:33:28;;;;;;;9.73;1.97;;;18.60;99.90;;;;;;5054892;28;20159;-80
2023/07/31 11:35:53;;;;;;;6.17;1.40;;;18.50;99.90;;;;;;5064129;28;20068;-79
2023/07/31 11:38:24;;;;;;;9.53;2.07;;;18.50;99.90;;;;;;5060604;28;20505;-79
2023/07/31 11:40:50;;;;;;;9.90;2.30;;;18.60;99.90;;;;;;5040292;28;20040;-80
2023/07/31 11:43:18;;;;;;;12.47;2.83;;;18.70;99.90;;;;;;5044689;28;20050;-79
2023/07/31 11:45:52;;;;;;;10.43;2.53;;;19.00;99.90;;;;;;5045566;28;20037;-79
2023/07/31 11:48:35;;;;;;;8.73;2.23;;;19.10;99.90;;;;;;5050533;28;20041;-80
2023/07/31 11:51:03;;;;;;;9.60;2.27;;;19.10;99.90;;;;;;5035937;28;20041;-80
2023/07/31 11:53:38;;;;;;;7.83;2.23;;;19.30;99.90;;;;;;5037537;28;20069;-79
2023/07/31 11:56:06;;;;;;;11.63;2.70;;;19.30;99.90;;;;;;5053599;28;20044;-79
2023/07/31 11:58:43;;;;;;;8.87;1.87;;;19.30;99.90;;;;;;5061180;28;20528;-79
2023/07/31 12:01:09;;;;;;;6.97;2.27;;;19.30;99.90;;;;;;5057618;28;20123;-79
2023/07/31 12:03:36;;;;;;;8.67;2.03;;;19.30;99.90;;;;;;5035527;28;20073;-78
2023/07/31 12:06:02;;;;;;;9.27;2.30;;;19.20;99.90;;;;;;5062396;28;20029;-80
2023/07/31 12:08:28;;;;;;;8.03;1.80;;;19.10;99.90;;;;;;5025864;28;20041;-79
2023/07/31 12:10:54;;;;;;;7.57;2.23;;;19.00;99.90;;;;;;5038893;28;20067;-79
2023/07/31 12:13:28;;;;;;;9.50;2.17;;;19.00;99.90;;;;;;5039276;28;20049;-79
2023/07/31 12:16:02;;;;;;;10.20;2.63;;;19.20;99.90;;;;;;5057236;28;20098;-78
2023/07/31 12:18:33;;;;;;;13.60;3.03;;;19.30;99.90;;;;;;5045864;28;20041;-78
2023/07/31 12:21:00;;;;;;;9.20;1.90;;;19.30;99.90;;;;;;5053229;28;20037;-79
2023/07/31 12:23:31;;;;;;;14.43;2.70;;;19.20;99.90;;;;;;5038427;28;20041;-77
2023/07/31 12:26:05;;;;;;;9.03;2.37;;;19.10;99.90;;;;;;5039024;28;20068;-78
2023/07/31 12:28:34;;;;;;;9.30;2.10;;;19.10;99.90;;;;;;5035438;28;20088;-79
2023/07/31 12:31:01;;;;;;;8.40;2.07;;;19.20;99.90;;;;;;5040914;28;20064;-78
2023/07/31 12:33:35;;;;;;;9.73;2.10;;;19.20;99.90;;;;;;5040181;28;20071;-77
2023/07/31 12:36:02;;;;;;;11.67;2.67;;;19.20;99.90;;;;;;5041120;28;20055;-78
2023/07/31 12:38:33;;;;;;;7.80;2.33;;;19.20;99.90;;;;;;5037092;28;20037;-78
2023/07/31 12:40:58;;;;;;;8.33;2.13;;;19.20;99.90;;;;;;5051515;28;20043;-78
2023/07/31 12:43:24;;;;;;;8.17;1.77;;;19.20;99.90;;;;;;5054597;28;20037;-77
2023/07/31 12:45:58;;;;;;;5.47;2.30;;;19.20;99.90;;;;;;5048965;28;20101;-77